createdAt,value
2023-05-11T00:01:08.894Z,23.21
2023-05-11T00:03:36.607Z,23.21
2023-05-11T00:06:04.530Z,23.21
2023-05-11T00:08:31.990Z,23.20
2023-05-11T00:11:01.020Z,23.20
2023-05-11T00:13:28.909Z,23.19
2023-05-11T00:15:56.345Z,23.20
2023-05-11T00:18:24.147Z,23.19
2023-05-11T00:20:51.577Z,23.18
2023-05-11T00:23:18.988Z,23.17
2023-05-11T00:25:46.742Z,23.17
2023-05-11T00:28:14.182Z,23.17
2023-05-11T00:30:41.623Z,23.17
2023-05-11T00:33:09.416Z,23.17
2023-05-11T00:35:36.894Z,23.16
2023-05-11T00:38:04.409Z,23.17
2023-05-11T00:40:32.328Z,23.17
2023-05-11T00:42:59.754Z,23.16
2023-05-11T00:45:27.341Z,23.15
2023-05-11T00:47:55.079Z,23.15
2023-05-11T00:50:22.634Z,23.15
2023-05-11T00:52:50.037Z,23.15
2023-05-11T00:55:19.520Z,23.14
2023-05-11T00:57:48.139Z,23.14
2023-05-11T01:00:15.895Z,23.13
2023-05-11T01:02:43.719Z,23.13
2023-05-11T01:05:11.240Z,23.14
2023-05-11T01:07:50.710Z,23.14
2023-05-11T01:10:27.957Z,23.14
2023-05-11T01:13:14.251Z,23.14
2023-05-11T01:15:50.851Z,23.14
2023-05-11T01:18:37.546Z,23.12
2023-05-11T01:21:05.487Z,23.13
2023-05-11T01:24:00.560Z,23.11
2023-05-11T01:27:10.332Z,23.12
2023-05-11T01:29:42.306Z,23.13
2023-05-11T01:32:21.022Z,23.10
2023-05-11T01:34:48.884Z,23.11
2023-05-11T01:37:19.675Z,23.10
2023-05-11T01:39:55.201Z,23.08
2023-05-11T01:42:32.972Z,23.11
2023-05-11T01:45:00.421Z,23.08
2023-05-11T01:47:28.568Z,23.08
2023-05-11T01:49:56.178Z,23.07
2023-05-11T01:52:24.419Z,23.08
2023-05-11T01:54:52.530Z,23.08
2023-05-11T01:57:19.949Z,23.07
2023-05-11T01:59:49.339Z,23.08
2023-05-11T02:02:18.363Z,23.08
2023-05-11T02:04:46.608Z,23.08
2023-05-11T02:07:14.026Z,23.07
2023-05-11T02:09:41.411Z,23.07
2023-05-11T02:12:09.130Z,23.07
2023-05-11T02:14:37.693Z,23.07
2023-05-11T02:17:05.519Z,23.07
2023-05-11T02:19:34.580Z,23.06
2023-05-11T02:22:02.597Z,23.05
2023-05-11T02:24:30.636Z,23.06
2023-05-11T02:26:59.035Z,23.05
2023-05-11T02:29:27.447Z,23.07
2023-05-11T02:32:02.209Z,23.07
2023-05-11T02:34:31.458Z,23.06
2023-05-11T02:37:02.647Z,23.07
2023-05-11T02:39:35.857Z,23.06
2023-05-11T02:42:22.280Z,23.07
2023-05-11T02:44:59.244Z,23.08
2023-05-11T02:47:37.821Z,23.07
2023-05-11T02:50:06.175Z,23.06
2023-05-11T02:52:34.313Z,23.06
2023-05-11T02:55:02.431Z,23.05
2023-05-11T02:57:30.226Z,23.05
2023-05-11T02:59:58.225Z,23.05
2023-05-11T03:02:25.913Z,23.03
2023-05-11T03:04:53.809Z,23.04
2023-05-11T03:07:21.218Z,23.03
2023-05-11T03:09:48.790Z,23.03
2023-05-11T03:12:16.486Z,23.03
2023-05-11T03:14:43.997Z,23.03
2023-05-11T03:17:12.802Z,23.03
2023-05-11T03:19:41.999Z,23.04
2023-05-11T03:22:09.832Z,23.03
2023-05-11T03:24:37.744Z,23.03
2023-05-11T03:27:06.311Z,23.02
2023-05-11T03:29:34.596Z,23.02
2023-05-11T03:32:02.205Z,23.02
2023-05-11T03:34:30.872Z,23.01
2023-05-11T03:36:58.687Z,23.00
2023-05-11T03:39:26.117Z,23.01
2023-05-11T03:41:53.887Z,23.00
2023-05-11T03:44:21.288Z,23.00
2023-05-11T03:46:48.785Z,23.00
2023-05-11T03:49:17.671Z,23.00
2023-05-11T03:51:45.084Z,23.00
2023-05-11T03:54:12.757Z,23.00
2023-05-11T03:56:40.711Z,23.00
2023-05-11T03:59:08.128Z,22.99
2023-05-11T04:01:35.573Z,23.00
2023-05-11T04:04:03.447Z,22.99
2023-05-11T04:06:31.492Z,23.00
2023-05-11T04:08:59.405Z,23.00
2023-05-11T04:11:27.653Z,22.99
2023-05-11T04:13:55.433Z,22.99
2023-05-11T04:16:22.907Z,22.99
2023-05-11T04:18:50.636Z,22.99
2023-05-11T04:21:18.339Z,22.99
2023-05-11T04:23:45.732Z,23.00
2023-05-11T04:26:13.446Z,22.98
2023-05-11T04:28:40.850Z,22.98
2023-05-11T04:31:08.277Z,22.98
2023-05-11T04:33:36.052Z,22.99
2023-05-11T04:36:03.664Z,22.99
2023-05-11T04:38:31.067Z,22.98
2023-05-11T04:41:03.159Z,22.98
2023-05-11T04:43:31.234Z,22.98
2023-05-11T04:45:59.454Z,22.99
2023-05-11T04:48:27.447Z,22.99
2023-05-11T04:50:54.997Z,22.99
2023-05-11T04:53:23.243Z,22.98
2023-05-11T04:55:50.923Z,22.99
2023-05-11T04:58:18.689Z,22.99
2023-05-11T05:00:46.449Z,22.98
2023-05-11T05:03:13.890Z,22.98
2023-05-11T05:05:41.457Z,22.98
2023-05-11T05:08:10.658Z,22.99
2023-05-11T05:10:38.728Z,23.00
2023-05-11T05:13:06.713Z,22.98
2023-05-11T05:15:34.478Z,22.99
2023-05-11T05:18:02.118Z,22.99
2023-05-11T05:20:30.368Z,22.99
2023-05-11T05:22:58.994Z,23.00
2023-05-11T05:25:26.522Z,22.98
2023-05-11T05:27:53.973Z,22.99
2023-05-11T05:30:21.831Z,22.99
2023-05-11T05:32:49.684Z,22.99
2023-05-11T05:35:17.158Z,22.99
2023-05-11T05:37:44.850Z,22.98
2023-05-11T05:40:12.581Z,22.99
2023-05-11T05:42:41.022Z,22.99
2023-05-11T05:45:12.446Z,22.99
2023-05-11T05:47:41.836Z,22.99
2023-05-11T05:50:10.085Z,22.99
2023-05-11T05:52:37.925Z,22.99
2023-05-11T05:55:05.985Z,22.98
2023-05-11T05:57:33.923Z,22.99
2023-05-11T06:00:01.678Z,22.98
2023-05-11T06:02:29.745Z,22.99
2023-05-11T06:04:58.511Z,22.98
2023-05-11T06:07:26.140Z,22.99
2023-05-11T06:09:53.576Z,22.98
2023-05-11T06:12:21.563Z,22.99
2023-05-11T06:14:49.135Z,22.98
2023-05-11T06:17:17.061Z,22.98
2023-05-11T06:19:46.186Z,22.98
2023-05-11T06:22:14.390Z,22.98
2023-05-11T06:24:41.994Z,22.99
2023-05-11T06:27:09.760Z,22.99
2023-05-11T06:29:38.242Z,22.99
2023-05-11T06:32:06.555Z,22.98
2023-05-11T06:34:34.433Z,22.99
2023-05-11T06:37:02.643Z,22.99
2023-05-11T06:39:30.127Z,22.99
2023-05-11T06:42:01.404Z,22.99
2023-05-11T06:44:30.474Z,22.98
2023-05-11T06:46:58.587Z,22.98
2023-05-11T06:49:26.404Z,22.99
2023-05-11T06:51:53.816Z,22.98
2023-05-11T06:54:22.895Z,22.99
2023-05-11T06:56:50.435Z,22.99
2023-05-11T06:59:17.872Z,22.98
2023-05-11T07:01:45.540Z,22.98
2023-05-11T07:04:13.138Z,22.97
2023-05-11T07:06:40.806Z,22.98
2023-05-11T07:09:08.485Z,22.99
2023-05-11T07:11:36.748Z,22.99
2023-05-11T07:14:04.165Z,22.99
2023-05-11T07:16:32.009Z,22.99
2023-05-11T07:18:59.657Z,23.00
2023-05-11T07:21:27.151Z,23.00
2023-05-11T07:23:54.841Z,23.00
2023-05-11T07:26:22.674Z,23.00
2023-05-11T07:28:50.137Z,23.02
2023-05-11T07:31:17.865Z,23.01
2023-05-11T07:33:45.260Z,23.02
2023-05-11T07:36:12.702Z,23.02
2023-05-11T07:38:40.458Z,23.02
2023-05-11T07:41:09.482Z,23.03
2023-05-11T07:43:38.291Z,23.04
2023-05-11T07:46:06.180Z,23.04
2023-05-11T07:48:33.676Z,23.04
2023-05-11T07:51:01.643Z,23.03
2023-05-11T07:53:29.335Z,23.05
2023-05-11T07:55:56.904Z,23.05
2023-05-11T07:58:24.375Z,23.06
2023-05-11T08:00:52.169Z,23.06
2023-05-11T08:03:19.931Z,23.06
2023-05-11T08:05:47.441Z,23.07
2023-05-11T08:08:16.021Z,23.08
2023-05-11T08:10:43.727Z,23.07
2023-05-11T08:13:11.223Z,23.09
2023-05-11T08:15:39.111Z,23.09
2023-05-11T08:18:07.837Z,23.08
2023-05-11T08:20:35.447Z,23.08
2023-05-11T08:23:03.237Z,23.08
2023-05-11T08:25:31.127Z,23.09
2023-05-11T08:27:58.588Z,23.08
2023-05-11T08:30:26.064Z,23.09
2023-05-11T08:32:58.732Z,23.09
2023-05-11T08:35:27.334Z,23.09
2023-05-11T08:37:55.049Z,23.09
2023-05-11T08:40:22.857Z,23.10
2023-05-11T08:42:50.331Z,23.12
2023-05-11T08:45:18.190Z,23.11
2023-05-11T08:47:46.136Z,23.11
2023-05-11T08:50:13.573Z,23.09
2023-05-11T08:52:41.934Z,23.10
2023-05-11T08:55:09.663Z,23.10
2023-05-11T08:57:37.278Z,23.09
2023-05-11T09:00:05.396Z,23.11
2023-05-11T09:02:33.519Z,23.11
2023-05-11T09:05:04.193Z,23.13
2023-05-11T09:07:32.208Z,23.12
2023-05-11T09:09:59.625Z,23.12
2023-05-11T09:12:28.461Z,23.12
2023-05-11T09:15:02.003Z,23.13
2023-05-11T09:17:29.744Z,23.15
2023-05-11T09:20:01.486Z,23.14
2023-05-11T09:22:32.063Z,23.15
2023-05-11T09:25:04.059Z,23.13
2023-05-11T09:27:32.432Z,23.13
2023-05-11T09:30:22.231Z,23.15
2023-05-11T09:32:57.536Z,23.15
2023-05-11T09:35:26.863Z,23.14
2023-05-11T09:38:00.553Z,23.13
2023-05-11T09:40:33.883Z,23.14
2023-05-11T09:43:03.724Z,23.13
2023-05-11T09:45:42.144Z,23.12
2023-05-11T09:48:21.822Z,23.15
2023-05-11T09:50:49.531Z,23.15
2023-05-11T09:53:17.358Z,23.13
2023-05-11T09:55:51.896Z,23.12
2023-05-11T09:58:19.620Z,23.12
2023-05-11T10:00:53.783Z,23.12
2023-05-11T10:03:21.683Z,23.13
2023-05-11T10:05:59.831Z,23.12
2023-05-11T10:08:28.398Z,23.12
2023-05-11T10:10:56.331Z,23.11
2023-05-11T10:13:27.144Z,23.12
2023-05-11T10:15:55.144Z,23.12
2023-05-11T10:18:22.730Z,23.12
2023-05-11T10:20:50.382Z,23.12
2023-05-11T10:23:18.529Z,23.12
2023-05-11T10:25:46.010Z,23.12
2023-05-11T10:28:13.548Z,23.11
2023-05-11T10:30:41.228Z,23.13
2023-05-11T10:33:08.754Z,23.12
2023-05-11T10:35:37.641Z,23.11
2023-05-11T10:38:06.718Z,23.11
2023-05-11T10:40:42.056Z,23.12
2023-05-11T10:43:31.899Z,23.13
2023-05-11T10:46:24.146Z,23.13
2023-05-11T10:49:10.347Z,23.14
2023-05-11T10:52:11.335Z,23.13
2023-05-11T10:54:50.162Z,23.13
2023-05-11T10:57:23.623Z,23.12
2023-05-11T11:00:18.638Z,23.12
2023-05-11T11:02:46.576Z,23.12
2023-05-11T11:05:17.879Z,23.09
2023-05-11T11:08:12.160Z,23.10
2023-05-11T11:10:41.610Z,23.13
2023-05-11T11:13:10.728Z,23.11
2023-05-11T11:15:56.746Z,23.11
2023-05-11T11:18:26.104Z,23.14
2023-05-11T11:20:57.291Z,23.10
2023-05-11T11:23:54.225Z,23.12
2023-05-11T11:26:45.989Z,23.16
2023-05-11T11:29:13.795Z,23.15
2023-05-11T11:31:41.394Z,23.12
2023-05-11T11:34:30.142Z,23.12
2023-05-11T11:37:02.106Z,23.13
2023-05-11T11:39:45.410Z,23.12
2023-05-11T11:42:20.578Z,23.11
2023-05-11T11:44:48.522Z,23.12
2023-05-11T11:47:17.480Z,23.12
2023-05-11T11:49:46.402Z,23.11
2023-05-11T11:52:14.609Z,23.12
2023-05-11T11:54:44.884Z,23.13
2023-05-11T11:57:38.035Z,23.12
2023-05-11T12:00:16.317Z,23.15
2023-05-11T12:02:45.096Z,23.12
2023-05-11T12:05:19.858Z,23.13
2023-05-11T12:07:51.717Z,23.12
2023-05-11T12:10:20.312Z,23.13
2023-05-11T12:12:48.717Z,23.11
2023-05-11T12:15:29.911Z,23.12
2023-05-11T12:17:57.867Z,23.13
2023-05-11T12:20:26.020Z,23.11
2023-05-11T12:22:53.655Z,23.12
2023-05-11T12:25:21.883Z,23.12
2023-05-11T12:27:59.063Z,23.12
2023-05-11T12:30:34.075Z,23.12
2023-05-11T12:33:04.184Z,23.12
2023-05-11T12:35:33.766Z,23.12
2023-05-11T12:38:02.389Z,23.13
2023-05-11T12:40:30.919Z,23.13
2023-05-11T12:42:59.526Z,23.13
2023-05-11T12:45:27.295Z,23.13
2023-05-11T12:47:55.724Z,23.14
2023-05-11T12:50:23.486Z,23.15
2023-05-11T12:52:51.036Z,23.15
2023-05-11T12:55:28.775Z,23.17
2023-05-11T12:58:10.335Z,23.21
2023-05-11T13:00:37.830Z,23.22
2023-05-11T13:03:05.786Z,23.22
2023-05-11T13:05:33.232Z,23.24
2023-05-11T13:08:02.107Z,23.25
2023-05-11T13:10:29.834Z,23.27
2023-05-11T13:12:57.393Z,23.30
2023-05-11T13:15:25.165Z,23.32
2023-05-11T13:18:05.060Z,23.35
2023-05-11T13:20:34.534Z,23.35
2023-05-11T13:23:13.328Z,23.35
2023-05-11T13:25:48.205Z,23.37
2023-05-11T13:28:16.732Z,23.37
2023-05-11T13:30:44.353Z,23.39
2023-05-11T13:33:11.906Z,23.38
2023-05-11T13:35:40.276Z,23.38
2023-05-11T13:38:08.200Z,23.39
2023-05-11T13:40:35.773Z,23.40
2023-05-11T13:43:03.482Z,23.42
2023-05-11T13:45:31.200Z,23.42
2023-05-11T13:47:58.878Z,23.44
2023-05-11T13:50:26.800Z,23.45
2023-05-11T13:52:54.300Z,23.46
2023-05-11T13:55:22.024Z,23.46
2023-05-11T13:57:50.049Z,23.49
2023-05-11T14:00:17.832Z,23.50
2023-05-11T14:02:45.647Z,23.50
2023-05-11T14:05:13.101Z,23.50
2023-05-11T14:07:47.788Z,23.50
2023-05-11T14:10:16.923Z,23.50
2023-05-11T14:12:44.398Z,23.52
2023-05-11T14:15:11.984Z,23.52
2023-05-11T14:17:42.681Z,23.53
2023-05-11T14:20:13.827Z,23.54
2023-05-11T14:22:41.630Z,23.54
2023-05-11T14:25:09.249Z,23.55
2023-05-11T14:27:36.743Z,23.55
2023-05-11T14:30:04.801Z,23.55
2023-05-11T14:32:32.289Z,23.57
2023-05-11T14:34:59.717Z,23.58
2023-05-11T14:37:27.497Z,23.56
2023-05-11T14:39:54.906Z,23.57
2023-05-11T14:42:22.854Z,23.58
2023-05-11T14:44:50.659Z,23.57
2023-05-11T14:47:18.056Z,23.56
2023-05-11T14:49:45.475Z,23.57
2023-05-11T14:52:13.240Z,23.56
2023-05-11T14:54:40.731Z,23.56
2023-05-11T14:57:08.269Z,23.56
2023-05-11T14:59:41.801Z,23.55
2023-05-11T15:02:15.463Z,23.55
2023-05-11T15:04:43.742Z,23.55
2023-05-11T15:07:11.218Z,23.54
2023-05-11T15:09:38.616Z,23.54
2023-05-11T15:12:06.549Z,23.53
2023-05-11T15:14:33.959Z,23.53
2023-05-11T15:17:01.618Z,23.53
2023-05-11T15:19:29.285Z,23.52
2023-05-11T15:21:56.856Z,23.52
2023-05-11T15:24:24.592Z,23.53
2023-05-11T15:26:52.308Z,23.51
2023-05-11T15:29:20.719Z,23.52
2023-05-11T15:31:48.212Z,23.52
2023-05-11T15:34:16.237Z,23.51
2023-05-11T15:36:45.635Z,23.50
2023-05-11T15:39:13.050Z,23.51
2023-05-11T15:41:40.744Z,23.51
2023-05-11T15:44:08.175Z,23.51
2023-05-11T15:46:36.013Z,23.50
2023-05-11T15:49:03.762Z,23.51
2023-05-11T15:51:31.172Z,23.50
2023-05-11T15:53:58.616Z,23.50
2023-05-11T15:56:26.458Z,23.50
2023-05-11T15:58:53.873Z,23.49
2023-05-11T16:01:21.772Z,23.49
2023-05-11T16:03:49.617Z,23.48
2023-05-11T16:06:17.088Z,23.48
2023-05-11T16:08:45.031Z,23.47
2023-05-11T16:11:12.687Z,23.47
2023-05-11T16:13:40.240Z,23.46
2023-05-11T16:16:07.737Z,23.46
2023-05-11T16:18:35.978Z,23.47
2023-05-11T16:21:04.166Z,23.46
2023-05-11T16:23:31.656Z,23.46
2023-05-11T16:25:59.315Z,23.45
2023-05-11T16:28:26.740Z,23.43
2023-05-11T16:30:57.172Z,23.45
2023-05-11T16:33:26.749Z,23.44
2023-05-11T16:35:54.165Z,23.41
2023-05-11T16:38:22.432Z,23.41
2023-05-11T16:40:50.321Z,23.40
2023-05-11T16:43:17.757Z,23.40
2023-05-11T16:45:45.178Z,23.40
2023-05-11T16:48:12.865Z,23.40
2023-05-11T16:50:40.264Z,23.40
2023-05-11T16:53:08.286Z,23.40
2023-05-11T16:55:35.950Z,23.40
2023-05-11T16:58:03.363Z,23.39
2023-05-11T17:00:34.043Z,23.39
2023-05-11T17:03:02.189Z,23.38
2023-05-11T17:05:30.182Z,23.39
2023-05-11T17:07:57.615Z,23.39
2023-05-11T17:10:25.427Z,23.41
2023-05-11T17:12:53.093Z,23.39
2023-05-11T17:15:20.614Z,23.41
2023-05-11T17:17:48.577Z,23.41
2023-05-11T17:20:16.027Z,23.42
2023-05-11T17:22:43.422Z,23.43
2023-05-11T17:25:11.318Z,23.44
2023-05-11T17:27:39.639Z,23.43
2023-05-11T17:30:08.631Z,23.45
2023-05-11T17:32:37.092Z,23.45
2023-05-11T17:35:05.247Z,23.46
2023-05-11T17:37:33.277Z,23.47
2023-05-11T17:40:01.278Z,23.47
2023-05-11T17:42:29.589Z,23.48
2023-05-11T17:44:57.101Z,23.48
2023-05-11T17:47:24.882Z,23.48
2023-05-11T17:50:08.034Z,23.48
2023-05-11T17:52:40.126Z,23.49
2023-05-11T17:55:08.541Z,23.50
2023-05-11T17:57:36.522Z,23.48
2023-05-11T18:00:06.220Z,23.47
2023-05-11T18:02:34.003Z,23.48
2023-05-11T18:05:01.848Z,23.50
2023-05-11T18:07:29.386Z,23.50
2023-05-11T18:09:57.565Z,23.50
2023-05-11T18:12:25.500Z,23.51
2023-05-11T18:14:52.923Z,23.53
2023-05-11T18:17:20.549Z,23.52
2023-05-11T18:19:47.932Z,23.52
2023-05-11T18:22:15.957Z,23.54
2023-05-11T18:24:43.719Z,23.55
2023-05-11T18:27:11.352Z,23.56
2023-05-11T18:29:39.646Z,23.56
2023-05-11T18:32:07.575Z,23.57
2023-05-11T18:34:35.186Z,23.58
2023-05-11T18:37:02.993Z,23.58
2023-05-11T18:39:30.929Z,23.60
2023-05-11T18:42:02.304Z,23.60
2023-05-11T18:44:29.759Z,23.64
2023-05-11T18:46:57.928Z,23.63
2023-05-11T18:49:25.624Z,23.63
2023-05-11T18:51:53.851Z,23.65
2023-05-11T18:54:21.816Z,23.64
2023-05-11T18:56:49.303Z,23.64
2023-05-11T18:59:17.114Z,23.66
2023-05-11T19:01:47.997Z,23.65
2023-05-11T19:04:19.698Z,23.67
2023-05-11T19:06:48.326Z,23.64
2023-05-11T19:09:15.964Z,23.68
2023-05-11T19:11:43.825Z,23.67
2023-05-11T19:14:14.911Z,23.65
2023-05-11T19:16:42.434Z,23.64
2023-05-11T19:19:10.285Z,23.64
2023-05-11T19:21:41.781Z,23.64
2023-05-11T19:24:10.139Z,23.63
2023-05-11T19:26:42.698Z,23.64
2023-05-11T19:29:17.065Z,23.64
2023-05-11T19:31:44.987Z,23.63
2023-05-11T19:34:12.596Z,23.63
2023-05-11T19:36:40.186Z,23.63
2023-05-11T19:39:08.539Z,23.63
2023-05-11T19:41:36.007Z,23.65
2023-05-11T19:44:04.618Z,23.64
2023-05-11T19:46:32.821Z,23.64
2023-05-11T19:49:00.781Z,23.63
2023-05-11T19:51:28.272Z,23.64
2023-05-11T19:53:56.185Z,23.64
2023-05-11T19:56:23.736Z,23.64
2023-05-11T19:58:51.278Z,23.63
2023-05-11T20:01:19.200Z,23.63
2023-05-11T20:03:47.221Z,23.63
2023-05-11T20:06:14.819Z,23.63
2023-05-11T20:08:42.289Z,23.62
2023-05-11T20:11:10.037Z,23.63
2023-05-11T20:13:37.502Z,23.62
2023-05-11T20:16:05.013Z,23.60
2023-05-11T20:18:33.279Z,23.60
2023-05-11T20:21:00.773Z,23.60
2023-05-11T20:23:28.191Z,23.59
2023-05-11T20:25:55.880Z,23.59
2023-05-11T20:28:27.067Z,23.58
2023-05-11T20:30:56.184Z,23.58
2023-05-11T20:35:54.250Z,23.56
2023-05-11T20:38:22.229Z,23.56
2023-05-11T20:40:50.120Z,23.54
2023-05-11T20:43:17.537Z,23.54
2023-05-11T20:45:45.080Z,23.53
2023-05-11T20:48:12.875Z,23.53
2023-05-11T20:50:40.306Z,23.53
2023-05-11T20:53:07.737Z,23.53
2023-05-11T20:55:35.601Z,23.53
2023-05-11T20:58:04.995Z,23.51
2023-05-11T21:00:32.522Z,23.51
2023-05-11T21:03:00.661Z,23.52
2023-05-11T21:05:28.201Z,23.51
2023-05-11T21:07:55.826Z,23.50
2023-05-11T21:10:23.843Z,23.50
2023-05-11T21:12:51.393Z,23.48
2023-05-11T21:15:18.828Z,23.48
2023-05-11T21:17:46.536Z,23.48
2023-05-11T21:20:14.078Z,23.47
2023-05-11T21:22:41.490Z,23.47
2023-05-11T21:25:09.174Z,23.47
2023-05-11T21:27:36.971Z,23.47
2023-05-11T21:30:04.970Z,23.48
2023-05-11T21:32:32.766Z,23.47
2023-05-11T21:35:00.310Z,23.47
2023-05-11T21:37:27.728Z,23.46
2023-05-11T21:39:55.572Z,23.47
2023-05-11T21:42:22.981Z,23.47
2023-05-11T21:44:50.401Z,23.46
2023-05-11T21:47:18.111Z,23.45
2023-05-11T21:49:45.532Z,23.45
2023-05-11T21:52:12.966Z,23.45
2023-05-11T21:54:40.803Z,23.45
2023-05-11T21:57:08.227Z,23.44
2023-05-11T21:59:36.154Z,23.44
2023-05-11T22:02:03.975Z,23.45
2023-05-11T22:04:31.913Z,23.44
2023-05-11T22:07:02.427Z,23.43
2023-05-11T22:09:31.432Z,23.43
2023-05-11T22:11:59.183Z,23.42
2023-05-11T22:14:26.610Z,23.41
2023-05-11T22:16:54.063Z,23.41
2023-05-11T22:19:21.798Z,23.41
2023-05-11T22:21:49.448Z,23.41
2023-05-11T22:24:16.842Z,23.40
2023-05-11T22:26:44.550Z,23.40
2023-05-11T22:29:12.000Z,23.39
2023-05-11T22:31:39.496Z,23.37
2023-05-11T22:34:07.174Z,23.38
2023-05-11T22:36:34.630Z,23.38
2023-05-11T22:39:02.119Z,23.35
2023-05-11T22:41:29.791Z,23.35
2023-05-11T22:43:57.179Z,23.35
2023-05-11T22:46:24.810Z,23.35
2023-05-11T22:48:52.589Z,23.34
2023-05-11T22:51:20.000Z,23.34
2023-05-11T22:53:48.293Z,23.34
2023-05-11T22:56:16.724Z,23.35
2023-05-11T22:58:44.146Z,23.33
2023-05-11T23:01:12.393Z,23.34
2023-05-11T23:03:40.252Z,23.35
2023-05-11T23:06:07.963Z,23.33
2023-05-11T23:08:35.401Z,23.34
2023-05-11T23:11:03.367Z,23.34
2023-05-11T23:13:30.788Z,23.35
2023-05-11T23:15:58.285Z,23.34
2023-05-11T23:18:26.181Z,23.33
2023-05-11T23:20:57.431Z,23.33
2023-05-11T23:23:25.178Z,23.33
2023-05-11T23:25:53.098Z,23.32
2023-05-11T23:28:20.556Z,23.32
2023-05-11T23:30:47.972Z,23.32
2023-05-11T23:33:15.610Z,23.31
2023-05-11T23:35:43.029Z,23.31
2023-05-11T23:38:10.417Z,23.30
2023-05-11T23:40:38.593Z,23.31
2023-05-11T23:43:06.012Z,23.29
2023-05-11T23:45:33.408Z,23.29
2023-05-11T23:48:01.109Z,23.29
2023-05-11T23:50:28.550Z,23.29
2023-05-11T23:52:55.937Z,23.29
2023-05-11T23:55:24.325Z,23.29
2023-05-11T23:57:51.711Z,23.28
